sensor_id;sensor_type;location;lat;lon;timestamp;P1;durP1;ratioP1;P2;durP2;ratioP2
73954;SDS011;62306;52.516;13.290;2022-09-09T00:02:09;14.38;;;9.05;;
73954;SDS011;62306;52.516;13.290;2022-09-09T00:04:42;14.10;;;9.48;;
73954;SDS011;62306;52.516;13.290;2022-09-09T00:07:19;11.57;;;9.02;;
73954;SDS011;62306;52.516;13.290;2022-09-09T00:09:52;12.30;;;9.10;;
73954;SDS011;62306;52.516;13.290;2022-09-09T00:12:27;11.77;;;9.63;;
73954;SDS011;62306;52.516;13.290;2022-09-09T00:15:02;13.05;;;8.88;;
73954;SDS011;62306;52.516;13.290;2022-09-09T00:17:35;14.30;;;9.43;;
73954;SDS011;62306;52.516;13.290;2022-09-09T00:20:09;12.07;;;8.77;;
73954;SDS011;62306;52.516;13.290;2022-09-09T00:22:42;11.32;;;9.13;;
73954;SDS011;62306;52.516;13.290;2022-09-09T00:25:14;14.48;;;9.48;;
73954;SDS011;62306;52.516;13.290;2022-09-09T00:27:47;11.55;;;9.50;;
73954;SDS011;62306;52.516;13.290;2022-09-09T00:30:15;15.88;;;10.35;;
73954;SDS011;62306;52.516;13.290;2022-09-09T00:32:48;13.73;;;11.45;;
73954;SDS011;62306;52.516;13.290;2022-09-09T00:35:18;15.50;;;11.32;;
73954;SDS011;62306;52.516;13.290;2022-09-09T00:37:50;15.27;;;10.52;;
73954;SDS011;62306;52.516;13.290;2022-09-09T00:40:22;13.88;;;9.88;;
73954;SDS011;62306;52.516;13.290;2022-09-09T00:45:33;12.93;;;10.35;;
73954;SDS011;62306;52.516;13.290;2022-09-09T00:48:12;13.93;;;11.05;;
73954;SDS011;62306;52.516;13.290;2022-09-09T00:50:43;15.40;;;10.48;;
73954;SDS011;62306;52.516;13.290;2022-09-09T00:53:27;12.93;;;11.13;;
73954;SDS011;62306;52.516;13.290;2022-09-09T00:56:00;14.65;;;11.50;;
73954;SDS011;62306;52.516;13.290;2022-09-09T00:58:35;12.93;;;9.73;;
73954;SDS011;62306;52.516;13.290;2022-09-09T01:01:03;13.00;;;10.60;;
73954;SDS011;62306;52.516;13.290;2022-09-09T01:03:34;13.48;;;11.07;;
73954;SDS011;62306;52.516;13.290;2022-09-09T01:06:04;12.02;;;10.40;;
73954;SDS011;62306;52.516;13.290;2022-09-09T01:11:45;13.68;;;10.73;;
73954;SDS011;62306;52.516;13.290;2022-09-09T01:14:22;12.95;;;10.75;;
73954;SDS011;62306;52.516;13.290;2022-09-09T01:17:05;14.15;;;10.93;;
73954;SDS011;62306;52.516;13.290;2022-09-09T01:19:44;12.75;;;10.98;;
73954;SDS011;62306;52.516;13.290;2022-09-09T01:22:21;17.05;;;11.77;;
73954;SDS011;62306;52.516;13.290;2022-09-09T01:25:07;14.95;;;11.57;;
73954;SDS011;62306;52.516;13.290;2022-09-09T01:27:49;17.60;;;11.63;;
73954;SDS011;62306;52.516;13.290;2022-09-09T01:30:18;17.30;;;11.80;;
73954;SDS011;62306;52.516;13.290;2022-09-09T01:32:45;14.50;;;10.80;;
73954;SDS011;62306;52.516;13.290;2022-09-09T01:35:19;15.55;;;11.25;;
73954;SDS011;62306;52.516;13.290;2022-09-09T01:37:55;14.70;;;10.80;;
73954;SDS011;62306;52.516;13.290;2022-09-09T01:40:22;13.70;;;11.05;;
73954;SDS011;62306;52.516;13.290;2022-09-09T01:42:52;14.73;;;10.73;;
73954;SDS011;62306;52.516;13.290;2022-09-09T01:45:20;12.32;;;10.23;;
73954;SDS011;62306;52.516;13.290;2022-09-09T01:47:48;13.00;;;10.35;;
73954;SDS011;62306;52.516;13.290;2022-09-09T01:50:17;20.45;;;10.93;;
73954;SDS011;62306;52.516;13.290;2022-09-09T01:52:44;14.45;;;10.93;;
73954;SDS011;62306;52.516;13.290;2022-09-09T01:55:15;13.45;;;10.88;;
73954;SDS011;62306;52.516;13.290;2022-09-09T01:57:43;12.05;;;9.57;;
73954;SDS011;62306;52.516;13.290;2022-09-09T02:00:22;12.73;;;10.77;;
73954;SDS011;62306;52.516;13.290;2022-09-09T02:02:52;13.10;;;10.43;;
73954;SDS011;62306;52.516;13.290;2022-09-09T02:05:28;12.90;;;10.57;;
73954;SDS011;62306;52.516;13.290;2022-09-09T02:08:00;12.23;;;10.40;;
73954;SDS011;62306;52.516;13.290;2022-09-09T02:10:34;13.10;;;10.68;;
73954;SDS011;62306;52.516;13.290;2022-09-09T02:13:13;15.82;;;11.18;;
73954;SDS011;62306;52.516;13.290;2022-09-09T02:15:45;13.75;;;11.48;;
73954;SDS011;62306;52.516;13.290;2022-09-09T02:18:20;13.52;;;10.90;;
73954;SDS011;62306;52.516;13.290;2022-09-09T02:20:52;12.05;;;10.38;;
73954;SDS011;62306;52.516;13.290;2022-09-09T02:23:20;14.05;;;10.55;;
73954;SDS011;62306;52.516;13.290;2022-09-09T02:25:47;15.55;;;11.32;;
73954;SDS011;62306;52.516;13.290;2022-09-09T02:28:18;14.75;;;10.93;;
73954;SDS011;62306;52.516;13.290;2022-09-09T02:30:50;16.50;;;10.32;;
73954;SDS011;62306;52.516;13.290;2022-09-09T02:33:20;17.00;;;11.65;;
73954;SDS011;62306;52.516;13.290;2022-09-09T02:35:50;14.57;;;11.57;;
73954;SDS011;62306;52.516;13.290;2022-09-09T02:38:17;14.77;;;10.23;;
73954;SDS011;62306;52.516;13.290;2022-09-09T02:40:47;16.27;;;11.38;;
73954;SDS011;62306;52.516;13.290;2022-09-09T02:43:14;16.80;;;10.27;;
73954;SDS011;62306;52.516;13.290;2022-09-09T02:45:44;14.52;;;11.18;;
73954;SDS011;62306;52.516;13.290;2022-09-09T02:48:23;17.50;;;11.10;;
73954;SDS011;62306;52.516;13.290;2022-09-09T02:50:57;14.68;;;10.98;;
73954;SDS011;62306;52.516;13.290;2022-09-09T02:53:33;14.38;;;10.43;;
73954;SDS011;62306;52.516;13.290;2022-09-09T02:56:08;12.50;;;9.88;;
73954;SDS011;62306;52.516;13.290;2022-09-09T02:58:40;17.92;;;10.63;;
73954;SDS011;62306;52.516;13.290;2022-09-09T03:01:08;15.77;;;10.95;;
73954;SDS011;62306;52.516;13.290;2022-09-09T03:03:36;15.88;;;10.70;;
73954;SDS011;62306;52.516;13.290;2022-09-09T03:06:03;13.10;;;10.02;;
73954;SDS011;62306;52.516;13.290;2022-09-09T03:08:30;14.43;;;10.77;;
73954;SDS011;62306;52.516;13.290;2022-09-09T03:10:58;12.95;;;10.55;;
73954;SDS011;62306;52.516;13.290;2022-09-09T03:13:26;15.50;;;10.63;;
73954;SDS011;62306;52.516;13.290;2022-09-09T03:15:53;13.05;;;10.60;;
73954;SDS011;62306;52.516;13.290;2022-09-09T03:18:21;15.20;;;10.82;;
73954;SDS011;62306;52.516;13.290;2022-09-09T03:20:48;14.07;;;10.25;;
73954;SDS011;62306;52.516;13.290;2022-09-09T03:23:16;13.35;;;9.75;;
73954;SDS011;62306;52.516;13.290;2022-09-09T03:25:46;16.38;;;10.07;;
73954;SDS011;62306;52.516;13.290;2022-09-09T03:28:13;13.18;;;9.88;;
73954;SDS011;62306;52.516;13.290;2022-09-09T03:30:40;17.58;;;11.32;;
73954;SDS011;62306;52.516;13.290;2022-09-09T03:33:07;13.38;;;9.75;;
73954;SDS011;62306;52.516;13.290;2022-09-09T03:35:35;15.23;;;10.13;;
73954;SDS011;62306;52.516;13.290;2022-09-09T03:38:02;13.05;;;9.52;;
73954;SDS011;62306;52.516;13.290;2022-09-09T03:40:29;13.25;;;10.35;;
73954;SDS011;62306;52.516;13.290;2022-09-09T03:42:56;12.88;;;10.13;;
73954;SDS011;62306;52.516;13.290;2022-09-09T03:45:23;16.27;;;10.60;;
73954;SDS011;62306;52.516;13.290;2022-09-09T03:47:50;13.13;;;10.07;;
73954;SDS011;62306;52.516;13.290;2022-09-09T03:50:17;14.73;;;9.23;;
73954;SDS011;62306;52.516;13.290;2022-09-09T03:52:45;13.65;;;9.50;;
73954;SDS011;62306;52.516;13.290;2022-09-09T03:55:13;15.75;;;9.70;;
73954;SDS011;62306;52.516;13.290;2022-09-09T03:57:40;13.75;;;9.55;;
73954;SDS011;62306;52.516;13.290;2022-09-09T04:00:08;10.73;;;9.05;;
73954;SDS011;62306;52.516;13.290;2022-09-09T04:02:35;12.80;;;9.63;;
73954;SDS011;62306;52.516;13.290;2022-09-09T04:05:02;13.52;;;9.25;;
73954;SDS011;62306;52.516;13.290;2022-09-09T04:07:31;15.90;;;10.57;;
73954;SDS011;62306;52.516;13.290;2022-09-09T04:09:59;13.93;;;9.90;;
73954;SDS011;62306;52.516;13.290;2022-09-09T04:12:26;15.70;;;10.07;;
73954;SDS011;62306;52.516;13.290;2022-09-09T04:14:53;16.65;;;9.20;;
73954;SDS011;62306;52.516;13.290;2022-09-09T04:17:20;14.48;;;9.40;;
73954;SDS011;62306;52.516;13.290;2022-09-09T04:19:47;13.38;;;9.73;;
73954;SDS011;62306;52.516;13.290;2022-09-09T04:22:13;12.93;;;8.80;;
73954;SDS011;62306;52.516;13.290;2022-09-09T04:24:41;14.30;;;9.63;;
73954;SDS011;62306;52.516;13.290;2022-09-09T04:27:09;11.55;;;9.13;;
73954;SDS011;62306;52.516;13.290;2022-09-09T04:29:36;16.25;;;10.77;;
73954;SDS011;62306;52.516;13.290;2022-09-09T04:32:03;16.25;;;9.95;;
73954;SDS011;62306;52.516;13.290;2022-09-09T04:34:30;12.38;;;8.57;;
73954;SDS011;62306;52.516;13.290;2022-09-09T04:36:57;13.13;;;9.15;;
73954;SDS011;62306;52.516;13.290;2022-09-09T04:39:25;16.33;;;9.00;;
73954;SDS011;62306;52.516;13.290;2022-09-09T04:41:52;10.60;;;8.05;;
73954;SDS011;62306;52.516;13.290;2022-09-09T04:44:20;18.40;;;14.32;;
73954;SDS011;62306;52.516;13.290;2022-09-09T04:46:47;23.95;;;15.18;;
73954;SDS011;62306;52.516;13.290;2022-09-09T04:49:14;17.02;;;10.48;;
73954;SDS011;62306;52.516;13.290;2022-09-09T04:51:40;15.10;;;9.65;;
73954;SDS011;62306;52.516;13.290;2022-09-09T04:54:07;12.02;;;8.90;;
73954;SDS011;62306;52.516;13.290;2022-09-09T04:56:34;14.23;;;10.32;;
73954;SDS011;62306;52.516;13.290;2022-09-09T04:59:01;11.88;;;9.02;;
73954;SDS011;62306;52.516;13.290;2022-09-09T05:01:30;11.73;;;8.60;;
73954;SDS011;62306;52.516;13.290;2022-09-09T05:03:57;15.85;;;9.15;;
73954;SDS011;62306;52.516;13.290;2022-09-09T05:06:24;15.13;;;9.52;;
73954;SDS011;62306;52.516;13.290;2022-09-09T05:08:51;13.80;;;8.55;;
73954;SDS011;62306;52.516;13.290;2022-09-09T05:11:19;14.68;;;7.13;;
73954;SDS011;62306;52.516;13.290;2022-09-09T05:13:48;14.43;;;7.00;;
73954;SDS011;62306;52.516;13.290;2022-09-09T05:16:16;11.32;;;7.90;;
73954;SDS011;62306;52.516;13.290;2022-09-09T05:18:45;9.25;;;6.97;;
73954;SDS011;62306;52.516;13.290;2022-09-09T05:21:14;18.83;;;7.13;;
73954;SDS011;62306;52.516;13.290;2022-09-09T05:23:42;8.27;;;5.95;;
73954;SDS011;62306;52.516;13.290;2022-09-09T05:26:11;9.82;;;6.38;;
73954;SDS011;62306;52.516;13.290;2022-09-09T05:28:39;11.15;;;6.32;;
73954;SDS011;62306;52.516;13.290;2022-09-09T05:31:07;11.52;;;5.97;;
73954;SDS011;62306;52.516;13.290;2022-09-09T05:33:36;10.80;;;5.40;;
73954;SDS011;62306;52.516;13.290;2022-09-09T05:36:07;8.65;;;5.22;;
73954;SDS011;62306;52.516;13.290;2022-09-09T05:38:35;8.57;;;5.30;;
73954;SDS011;62306;52.516;13.290;2022-09-09T05:41:03;6.22;;;5.32;;
73954;SDS011;62306;52.516;13.290;2022-09-09T05:43:30;7.97;;;5.45;;
73954;SDS011;62306;52.516;13.290;2022-09-09T05:46:01;10.25;;;5.57;;
73954;SDS011;62306;52.516;13.290;2022-09-09T05:48:29;13.40;;;6.07;;
73954;SDS011;62306;52.516;13.290;2022-09-09T05:50:57;9.00;;;5.78;;
73954;SDS011;62306;52.516;13.290;2022-09-09T05:53:25;9.10;;;4.93;;
73954;SDS011;62306;52.516;13.290;2022-09-09T05:55:59;9.80;;;5.57;;
73954;SDS011;62306;52.516;13.290;2022-09-09T05:58:28;6.32;;;5.18;;
73954;SDS011;62306;52.516;13.290;2022-09-09T06:01:00;7.25;;;4.97;;
73954;SDS011;62306;52.516;13.290;2022-09-09T06:03:27;4.78;;;4.30;;
73954;SDS011;62306;52.516;13.290;2022-09-09T06:05:58;8.25;;;4.95;;
73954;SDS011;62306;52.516;13.290;2022-09-09T06:08:26;8.23;;;4.70;;
73954;SDS011;62306;52.516;13.290;2022-09-09T06:10:53;7.85;;;4.18;;
73954;SDS011;62306;52.516;13.290;2022-09-09T06:13:27;7.25;;;5.47;;
73954;SDS011;62306;52.516;13.290;2022-09-09T06:15:54;16.65;;;5.07;;
73954;SDS011;62306;52.516;13.290;2022-09-09T06:18:21;14.82;;;5.43;;
73954;SDS011;62306;52.516;13.290;2022-09-09T06:20:57;9.77;;;4.25;;
73954;SDS011;62306;52.516;13.290;2022-09-09T06:23:27;9.50;;;4.32;;
73954;SDS011;62306;52.516;13.290;2022-09-09T06:26:00;6.25;;;4.55;;
73954;SDS011;62306;52.516;13.290;2022-09-09T06:28:31;7.57;;;4.60;;
73954;SDS011;62306;52.516;13.290;2022-09-09T06:30:58;7.53;;;6.35;;
73954;SDS011;62306;52.516;13.290;2022-09-09T06:33:26;24.75;;;14.50;;
73954;SDS011;62306;52.516;13.290;2022-09-09T06:35:53;11.48;;;6.63;;
73954;SDS011;62306;52.516;13.290;2022-09-09T06:38:22;6.63;;;4.40;;
73954;SDS011;62306;52.516;13.290;2022-09-09T06:40:53;10.45;;;4.20;;
73954;SDS011;62306;52.516;13.290;2022-09-09T06:43:20;10.63;;;7.13;;
73954;SDS011;62306;52.516;13.290;2022-09-09T06:45:54;17.63;;;8.98;;
73954;SDS011;62306;52.516;13.290;2022-09-09T06:48:23;11.25;;;5.88;;
73954;SDS011;62306;52.516;13.290;2022-09-09T06:50:59;12.77;;;4.20;;
73954;SDS011;62306;52.516;13.290;2022-09-09T06:53:27;7.03;;;3.63;;
73954;SDS011;62306;52.516;13.290;2022-09-09T06:55:55;16.90;;;12.10;;
73954;SDS011;62306;52.516;13.290;2022-09-09T06:58:22;7.00;;;4.25;;
73954;SDS011;62306;52.516;13.290;2022-09-09T07:00:49;5.57;;;3.90;;
73954;SDS011;62306;52.516;13.290;2022-09-09T07:03:16;8.00;;;4.25;;
73954;SDS011;62306;52.516;13.290;2022-09-09T07:05:42;6.05;;;3.22;;
73954;SDS011;62306;52.516;13.290;2022-09-09T07:08:10;4.93;;;2.65;;
73954;SDS011;62306;52.516;13.290;2022-09-09T07:10:37;8.65;;;4.15;;
73954;SDS011;62306;52.516;13.290;2022-09-09T07:13:05;7.03;;;2.83;;
73954;SDS011;62306;52.516;13.290;2022-09-09T07:15:32;6.03;;;2.65;;
73954;SDS011;62306;52.516;13.290;2022-09-09T07:18:00;5.45;;;2.70;;
73954;SDS011;62306;52.516;13.290;2022-09-09T07:20:27;5.47;;;3.15;;
73954;SDS011;62306;52.516;13.290;2022-09-09T07:22:54;10.27;;;2.28;;
73954;SDS011;62306;52.516;13.290;2022-09-09T07:25:23;6.60;;;2.35;;
73954;SDS011;62306;52.516;13.290;2022-09-09T07:27:51;6.45;;;1.88;;
73954;SDS011;62306;52.516;13.290;2022-09-09T07:30:20;8.02;;;2.33;;
73954;SDS011;62306;52.516;13.290;2022-09-09T07:32:47;7.80;;;2.70;;
73954;SDS011;62306;52.516;13.290;2022-09-09T07:35:14;7.97;;;1.80;;
73954;SDS011;62306;52.516;13.290;2022-09-09T07:37:41;4.07;;;2.30;;
73954;SDS011;62306;52.516;13.290;2022-09-09T07:40:08;8.00;;;1.77;;
73954;SDS011;62306;52.516;13.290;2022-09-09T07:42:35;5.95;;;1.55;;
73954;SDS011;62306;52.516;13.290;2022-09-09T07:45:03;3.22;;;2.08;;
73954;SDS011;62306;52.516;13.290;2022-09-09T07:47:32;4.40;;;2.03;;
73954;SDS011;62306;52.516;13.290;2022-09-09T07:49:59;7.07;;;2.03;;
73954;SDS011;62306;52.516;13.290;2022-09-09T07:52:26;3.95;;;1.90;;
73954;SDS011;62306;52.516;13.290;2022-09-09T07:54:53;4.82;;;1.80;;
73954;SDS011;62306;52.516;13.290;2022-09-09T07:57:21;5.57;;;1.75;;
73954;SDS011;62306;52.516;13.290;2022-09-09T07:59:48;5.75;;;1.50;;
73954;SDS011;62306;52.516;13.290;2022-09-09T08:02:15;8.30;;;2.25;;
73954;SDS011;62306;52.516;13.290;2022-09-09T08:04:43;4.75;;;1.88;;
73954;SDS011;62306;52.516;13.290;2022-09-09T08:07:11;6.55;;;2.05;;
73954;SDS011;62306;52.516;13.290;2022-09-09T08:09:38;5.32;;;1.60;;
73954;SDS011;62306;52.516;13.290;2022-09-09T08:12:05;9.65;;;4.28;;
73954;SDS011;62306;52.516;13.290;2022-09-09T08:14:34;8.75;;;2.53;;
73954;SDS011;62306;52.516;13.290;2022-09-09T08:17:01;4.45;;;1.73;;
73954;SDS011;62306;52.516;13.290;2022-09-09T08:19:28;3.58;;;1.45;;
73954;SDS011;62306;52.516;13.290;2022-09-09T08:21:56;9.18;;;1.83;;
73954;SDS011;62306;52.516;13.290;2022-09-09T08:24:23;7.20;;;1.80;;
73954;SDS011;62306;52.516;13.290;2022-09-09T08:26:51;3.55;;;1.55;;
73954;SDS011;62306;52.516;13.290;2022-09-09T08:29:18;6.82;;;1.90;;
73954;SDS011;62306;52.516;13.290;2022-09-09T08:31:46;4.50;;;1.88;;
73954;SDS011;62306;52.516;13.290;2022-09-09T08:34:15;4.25;;;2.00;;
73954;SDS011;62306;52.516;13.290;2022-09-09T08:36:43;4.20;;;2.00;;
73954;SDS011;62306;52.516;13.290;2022-09-09T08:39:13;8.63;;;1.90;;
73954;SDS011;62306;52.516;13.290;2022-09-09T08:41:46;5.60;;;1.80;;
73954;SDS011;62306;52.516;13.290;2022-09-09T08:44:49;3.88;;;1.50;;
73954;SDS011;62306;52.516;13.290;2022-09-09T08:47:34;4.82;;;1.23;;
73954;SDS011;62306;52.516;13.290;2022-09-09T08:50:16;5.32;;;1.70;;
73954;SDS011;62306;52.516;13.290;2022-09-09T08:52:51;8.38;;;1.95;;
73954;SDS011;62306;52.516;13.290;2022-09-09T08:55:25;8.15;;;1.88;;
73954;SDS011;62306;52.516;13.290;2022-09-09T08:58:02;4.78;;;1.83;;
73954;SDS011;62306;52.516;13.290;2022-09-09T09:00:37;6.20;;;2.08;;
73954;SDS011;62306;52.516;13.290;2022-09-09T09:03:13;4.13;;;1.65;;
73954;SDS011;62306;52.516;13.290;2022-09-09T09:05:46;8.00;;;2.42;;
73954;SDS011;62306;52.516;13.290;2022-09-09T09:08:18;10.07;;;2.53;;
73954;SDS011;62306;52.516;13.290;2022-09-09T09:10:56;6.60;;;2.17;;
73954;SDS011;62306;52.516;13.290;2022-09-09T09:13:26;7.72;;;1.90;;
73954;SDS011;62306;52.516;13.290;2022-09-09T09:16:02;2.75;;;1.40;;
73954;SDS011;62306;52.516;13.290;2022-09-09T09:18:36;3.47;;;1.63;;
73954;SDS011;62306;52.516;13.290;2022-09-09T09:21:04;3.10;;;1.50;;
73954;SDS011;62306;52.516;13.290;2022-09-09T09:23:40;6.63;;;1.58;;
73954;SDS011;62306;52.516;13.290;2022-09-09T09:26:13;6.28;;;2.00;;
73954;SDS011;62306;52.516;13.290;2022-09-09T09:28:41;6.65;;;2.35;;
73954;SDS011;62306;52.516;13.290;2022-09-09T09:31:09;5.68;;;2.67;;
73954;SDS011;62306;52.516;13.290;2022-09-09T09:33:42;5.22;;;1.60;;
73954;SDS011;62306;52.516;13.290;2022-09-09T09:36:13;5.63;;;1.63;;
73954;SDS011;62306;52.516;13.290;2022-09-09T09:38:51;4.28;;;1.65;;
73954;SDS011;62306;52.516;13.290;2022-09-09T09:41:31;5.50;;;1.50;;
73954;SDS011;62306;52.516;13.290;2022-09-09T09:44:00;10.15;;;1.90;;
73954;SDS011;62306;52.516;13.290;2022-09-09T09:46:29;10.52;;;2.55;;
73954;SDS011;62306;52.516;13.290;2022-09-09T09:48:57;3.15;;;1.42;;
73954;SDS011;62306;52.516;13.290;2022-09-09T09:51:25;5.65;;;1.67;;
73954;SDS011;62306;52.516;13.290;2022-09-09T09:53:54;14.52;;;3.13;;
73954;SDS011;62306;52.516;13.290;2022-09-09T09:56:36;5.68;;;2.17;;
73954;SDS011;62306;52.516;13.290;2022-09-09T09:59:02;5.20;;;1.55;;
73954;SDS011;62306;52.516;13.290;2022-09-09T10:01:30;9.93;;;2.50;;
73954;SDS011;62306;52.516;13.290;2022-09-09T10:03:59;4.35;;;1.90;;
73954;SDS011;62306;52.516;13.290;2022-09-09T10:06:31;5.35;;;2.60;;
73954;SDS011;62306;52.516;13.290;2022-09-09T10:08:59;7.75;;;2.17;;
73954;SDS011;62306;52.516;13.290;2022-09-09T10:11:30;3.45;;;2.35;;
73954;SDS011;62306;52.516;13.290;2022-09-09T10:14:12;5.80;;;2.47;;
73954;SDS011;62306;52.516;13.290;2022-09-09T10:16:47;4.57;;;1.70;;
73954;SDS011;62306;52.516;13.290;2022-09-09T10:19:29;7.80;;;1.67;;
73954;SDS011;62306;52.516;13.290;2022-09-09T10:22:11;9.57;;;2.60;;
73954;SDS011;62306;52.516;13.290;2022-09-09T10:24:52;5.75;;;1.60;;
73954;SDS011;62306;52.516;13.290;2022-09-09T10:27:40;4.82;;;1.50;;
73954;SDS011;62306;52.516;13.290;2022-09-09T10:30:16;7.57;;;1.75;;
73954;SDS011;62306;52.516;13.290;2022-09-09T10:32:46;5.38;;;1.38;;
73954;SDS011;62306;52.516;13.290;2022-09-09T10:35:25;8.98;;;1.40;;
73954;SDS011;62306;52.516;13.290;2022-09-09T10:43:52;7.15;;;2.00;;
73954;SDS011;62306;52.516;13.290;2022-09-09T10:46:35;7.05;;;2.40;;
73954;SDS011;62306;52.516;13.290;2022-09-09T10:49:15;4.80;;;1.77;;
73954;SDS011;62306;52.516;13.290;2022-09-09T10:51:52;5.60;;;2.60;;
73954;SDS011;62306;52.516;13.290;2022-09-09T10:54:31;6.35;;;2.65;;
73954;SDS011;62306;52.516;13.290;2022-09-09T10:57:10;5.10;;;1.60;;
73954;SDS011;62306;52.516;13.290;2022-09-09T10:59:43;2.92;;;0.95;;
73954;SDS011;62306;52.516;13.290;2022-09-09T11:02:15;6.32;;;1.27;;
73954;SDS011;62306;52.516;13.290;2022-09-09T11:04:48;3.00;;;1.10;;
73954;SDS011;62306;52.516;13.290;2022-09-09T11:07:22;5.15;;;1.48;;
73954;SDS011;62306;52.516;13.290;2022-09-09T11:09:55;3.40;;;1.58;;
73954;SDS011;62306;52.516;13.290;2022-09-09T11:12:27;4.93;;;1.40;;
73954;SDS011;62306;52.516;13.290;2022-09-09T11:14:59;6.30;;;1.35;;
73954;SDS011;62306;52.516;13.290;2022-09-09T11:17:33;7.28;;;1.63;;
73954;SDS011;62306;52.516;13.290;2022-09-09T11:20:10;3.83;;;1.20;;
73954;SDS011;62306;52.516;13.290;2022-09-09T11:22:39;3.45;;;1.15;;
73954;SDS011;62306;52.516;13.290;2022-09-09T11:25:14;4.28;;;1.70;;
73954;SDS011;62306;52.516;13.290;2022-09-09T11:27:44;4.53;;;1.40;;
73954;SDS011;62306;52.516;13.290;2022-09-09T11:30:26;7.90;;;3.53;;
73954;SDS011;62306;52.516;13.290;2022-09-09T11:33:12;6.25;;;1.67;;
73954;SDS011;62306;52.516;13.290;2022-09-09T11:36:10;5.78;;;1.25;;
73954;SDS011;62306;52.516;13.290;2022-09-09T11:38:49;3.92;;;1.10;;
73954;SDS011;62306;52.516;13.290;2022-09-09T11:41:18;5.78;;;2.63;;
73954;SDS011;62306;52.516;13.290;2022-09-09T11:43:47;9.77;;;5.45;;
73954;SDS011;62306;52.516;13.290;2022-09-09T11:46:17;6.75;;;3.47;;
73954;SDS011;62306;52.516;13.290;2022-09-09T11:48:57;3.50;;;1.40;;
73954;SDS011;62306;52.516;13.290;2022-09-09T11:51:26;5.72;;;1.38;;
73954;SDS011;62306;52.516;13.290;2022-09-09T11:53:55;3.33;;;1.10;;
73954;SDS011;62306;52.516;13.290;2022-09-09T11:56:27;5.40;;;1.40;;
73954;SDS011;62306;52.516;13.290;2022-09-09T11:58:57;6.22;;;2.28;;
73954;SDS011;62306;52.516;13.290;2022-09-09T12:01:30;4.22;;;1.33;;
73954;SDS011;62306;52.516;13.290;2022-09-09T12:06:56;5.57;;;1.77;;
73954;SDS011;62306;52.516;13.290;2022-09-09T12:09:29;6.63;;;1.45;;
73954;SDS011;62306;52.516;13.290;2022-09-09T12:14:54;3.17;;;1.83;;
73954;SDS011;62306;52.516;13.290;2022-09-09T12:17:26;4.85;;;2.60;;
73954;SDS011;62306;52.516;13.290;2022-09-09T12:20:08;5.85;;;2.05;;
73954;SDS011;62306;52.516;13.290;2022-09-09T12:22:42;5.50;;;1.00;;
73954;SDS011;62306;52.516;13.290;2022-09-09T12:25:21;7.60;;;3.60;;
73954;SDS011;62306;52.516;13.290;2022-09-09T12:27:59;4.32;;;1.00;;
73954;SDS011;62306;52.516;13.290;2022-09-09T12:30:32;4.70;;;1.50;;
73954;SDS011;62306;52.516;13.290;2022-09-09T12:33:10;7.07;;;3.03;;
73954;SDS011;62306;52.516;13.290;2022-09-09T12:35:39;5.13;;;1.10;;
73954;SDS011;62306;52.516;13.290;2022-09-09T12:38:10;3.05;;;1.17;;
73954;SDS011;62306;52.516;13.290;2022-09-09T12:40:41;3.50;;;1.88;;
73954;SDS011;62306;52.516;13.290;2022-09-09T12:43:16;11.35;;;4.38;;
73954;SDS011;62306;52.516;13.290;2022-09-09T12:45:44;9.70;;;1.75;;
73954;SDS011;62306;52.516;13.290;2022-09-09T12:48:16;8.23;;;2.70;;
73954;SDS011;62306;52.516;13.290;2022-09-09T12:50:45;13.43;;;2.40;;
73954;SDS011;62306;52.516;13.290;2022-09-09T12:53:16;3.15;;;1.00;;
73954;SDS011;62306;52.516;13.290;2022-09-09T12:55:49;3.60;;;0.80;;
73954;SDS011;62306;52.516;13.290;2022-09-09T12:58:18;2.47;;;0.82;;
73954;SDS011;62306;52.516;13.290;2022-09-09T13:00:49;2.88;;;1.00;;
73954;SDS011;62306;52.516;13.290;2022-09-09T13:03:19;4.13;;;1.85;;
73954;SDS011;62306;52.516;13.290;2022-09-09T13:05:47;5.80;;;3.55;;
73954;SDS011;62306;52.516;13.290;2022-09-09T13:08:14;13.55;;;4.53;;
73954;SDS011;62306;52.516;13.290;2022-09-09T13:10:46;5.63;;;2.20;;
73954;SDS011;62306;52.516;13.290;2022-09-09T13:13:20;4.78;;;1.00;;
73954;SDS011;62306;52.516;13.290;2022-09-09T13:15:49;3.78;;;2.30;;
73954;SDS011;62306;52.516;13.290;2022-09-09T13:18:20;3.63;;;1.55;;
73954;SDS011;62306;52.516;13.290;2022-09-09T13:20:49;5.20;;;2.67;;
73954;SDS011;62306;52.516;13.290;2022-09-09T13:23:18;18.95;;;10.77;;
73954;SDS011;62306;52.516;13.290;2022-09-09T13:25:52;5.03;;;2.47;;
73954;SDS011;62306;52.516;13.290;2022-09-09T13:28:21;9.93;;;2.60;;
73954;SDS011;62306;52.516;13.290;2022-09-09T13:30:55;5.88;;;2.00;;
73954;SDS011;62306;52.516;13.290;2022-09-09T13:33:30;10.90;;;2.63;;
73954;SDS011;62306;52.516;13.290;2022-09-09T13:35:59;3.22;;;1.13;;
73954;SDS011;62306;52.516;13.290;2022-09-09T13:38:29;5.32;;;1.40;;
73954;SDS011;62306;52.516;13.290;2022-09-09T13:41:00;4.28;;;1.48;;
73954;SDS011;62306;52.516;13.290;2022-09-09T13:43:29;3.35;;;0.90;;
73954;SDS011;62306;52.516;13.290;2022-09-09T13:46:00;18.35;;;13.80;;
73954;SDS011;62306;52.516;13.290;2022-09-09T13:48:30;12.82;;;4.47;;
73954;SDS011;62306;52.516;13.290;2022-09-09T13:50:58;7.22;;;3.10;;
73954;SDS011;62306;52.516;13.290;2022-09-09T13:53:26;5.15;;;1.15;;
73954;SDS011;62306;52.516;13.290;2022-09-09T13:55:53;6.65;;;1.65;;
73954;SDS011;62306;52.516;13.290;2022-09-09T13:58:22;11.32;;;6.50;;
73954;SDS011;62306;52.516;13.290;2022-09-09T14:00:50;6.82;;;1.48;;
73954;SDS011;62306;52.516;13.290;2022-09-09T14:03:17;3.55;;;1.40;;
73954;SDS011;62306;52.516;13.290;2022-09-09T14:05:45;5.03;;;2.13;;
73954;SDS011;62306;52.516;13.290;2022-09-09T14:08:15;2.78;;;1.05;;
73954;SDS011;62306;52.516;13.290;2022-09-09T14:10:47;6.35;;;2.55;;
73954;SDS011;62306;52.516;13.290;2022-09-09T14:13:15;4.22;;;1.33;;
73954;SDS011;62306;52.516;13.290;2022-09-09T14:15:42;5.85;;;1.80;;
73954;SDS011;62306;52.516;13.290;2022-09-09T14:18:09;7.75;;;1.92;;
73954;SDS011;62306;52.516;13.290;2022-09-09T14:20:38;4.20;;;1.08;;
73954;SDS011;62306;52.516;13.290;2022-09-09T14:23:07;3.15;;;1.33;;
73954;SDS011;62306;52.516;13.290;2022-09-09T14:25:39;3.05;;;1.20;;
73954;SDS011;62306;52.516;13.290;2022-09-09T14:28:07;6.93;;;1.58;;
73954;SDS011;62306;52.516;13.290;2022-09-09T14:30:39;5.55;;;1.25;;
73954;SDS011;62306;52.516;13.290;2022-09-09T14:33:07;7.45;;;2.85;;
73954;SDS011;62306;52.516;13.290;2022-09-09T14:35:36;6.10;;;3.05;;
73954;SDS011;62306;52.516;13.290;2022-09-09T14:38:04;9.15;;;4.85;;
73954;SDS011;62306;52.516;13.290;2022-09-09T14:40:33;8.75;;;2.67;;
73954;SDS011;62306;52.516;13.290;2022-09-09T14:43:01;5.50;;;2.40;;
73954;SDS011;62306;52.516;13.290;2022-09-09T14:45:28;4.45;;;1.40;;
73954;SDS011;62306;52.516;13.290;2022-09-09T14:47:55;6.90;;;1.80;;
73954;SDS011;62306;52.516;13.290;2022-09-09T14:50:22;6.70;;;3.42;;
73954;SDS011;62306;52.516;13.290;2022-09-09T14:52:50;5.88;;;2.22;;
73954;SDS011;62306;52.516;13.290;2022-09-09T14:55:17;6.93;;;2.80;;
73954;SDS011;62306;52.516;13.290;2022-09-09T14:57:46;9.80;;;5.30;;
73954;SDS011;62306;52.516;13.290;2022-09-09T15:00:13;7.32;;;2.72;;
73954;SDS011;62306;52.516;13.290;2022-09-09T15:02:40;6.85;;;1.83;;
73954;SDS011;62306;52.516;13.290;2022-09-09T15:05:08;7.03;;;1.55;;